Time;durP1;ratioP1;P1;durP2;ratioP2;P2;SDS_P1;SDS_P2;PMS_P1;PMS_P2;Temp;Humidity;BMP_temperature;BMP_pressure;BME280_temperature;BME280_humidity;BME280_pressure;Samples;Min_cycle;Max_cycle;Signal;HPM_P1;HPM_P2
2023/03/22 00:01:32;;;;;;;;;;;9.90;99.90;;;;;;5068368;28;20365;-77
2023/03/22 00:03:57;;;;;;;;;;;9.90;99.90;;;;;;5078283;28;19927;-77
2023/03/22 00:06:23;;;;;;;;;;;9.90;99.90;;;;;;5088961;28;19919;-77
2023/03/22 00:08:50;;;;;;;;;;;9.90;99.90;;;;;;5089047;28;19912;-77
2023/03/22 00:11:16;;;;;;;;;;;9.90;99.90;;;;;;5088618;28;19935;-77
2023/03/22 00:13:42;;;;;;;;;;;9.90;99.90;;;;;;5088675;28;19970;-77
2023/03/22 00:16:08;;;;;;;;;;;9.90;99.90;;;;;;5088593;28;20473;-77
2023/03/22 00:18:34;;;;;;;;;;;9.90;99.90;;;;;;5088431;28;20007;-77
2023/03/22 00:20:59;;;;;;;;;;;9.90;99.90;;;;;;5056207;28;20004;-77
2023/03/22 00:23:25;;;;;;;;;;;9.90;99.90;;;;;;5068256;28;19951;-77
2023/03/22 00:25:51;;;;;;;;;;;9.90;99.90;;;;;;5068136;28;19920;-77
2023/03/22 00:28:16;;;;;;;;;;;9.90;99.90;;;;;;5068166;28;19913;-77
2023/03/22 00:30:49;;;;;;;;;;;9.90;99.90;;;;;;5067849;28;19920;-77
2023/03/22 00:33:14;;;;;;;;;;;9.90;99.90;;;;;;5071650;28;19966;-77
2023/03/22 00:35:46;;;;;;;;;;;9.90;99.90;;;;;;5088607;28;19952;-76
2023/03/22 00:38:13;;;;;;;;;;;9.90;99.90;;;;;;5088065;28;19920;-77
2023/03/22 00:40:39;;;;;;;;;;;9.90;99.90;;;;;;5074536;28;19920;-77
2023/03/22 00:43:04;;;;;;;;;;;9.90;99.90;;;;;;5070914;28;19938;-77
2023/03/22 00:45:30;;;;;;;;;;;10.00;99.90;;;;;;5088381;28;19916;-77
2023/03/22 00:47:55;;;;;;;;;;;9.90;99.90;;;;;;5088348;28;20420;-77
2023/03/22 00:50:21;;;;;;;;;;;9.90;99.90;;;;;;5079844;28;20075;-77
2023/03/22 00:52:46;;;;;;;;;;;9.90;99.90;;;;;;5067864;28;19913;-77
2023/03/22 00:55:12;;;;;;;;;;;9.90;99.90;;;;;;5067921;28;19955;-77
2023/03/22 00:57:37;;;;;;;;;;;10.00;99.90;;;;;;5062755;28;19952;-77
2023/03/22 01:00:14;;;;;;;;;;;9.90;99.90;;;;;;5067436;28;20637;-77
2023/03/22 01:02:41;;;;;;;;;;;9.90;99.90;;;;;;5067585;28;19919;-77
2023/03/22 01:05:07;;;;;;;;;;;9.90;99.90;;;;;;5067456;28;19916;-77
2023/03/22 01:07:32;;;;;;;;;;;9.90;99.90;;;;;;5067951;28;19973;-77
2023/03/22 01:09:58;;;;;;;;;;;9.90;99.90;;;;;;5049785;28;20544;-77
2023/03/22 01:12:24;;;;;;;;;;;9.90;99.90;;;;;;5067517;28;19919;-77
2023/03/22 01:14:49;;;;;;;;;;;9.90;99.90;;;;;;5085150;28;19912;-77
2023/03/22 01:17:15;;;;;;;;;;;9.90;99.90;;;;;;5069534;28;19934;-77
2023/03/22 01:19:40;;;;;;;;;;;9.90;99.90;;;;;;5085135;28;20062;-76
2023/03/22 01:22:06;;;;;;;;;;;9.90;99.90;;;;;;5066775;28;19913;-77
2023/03/22 01:24:32;;;;;;;;;;;9.90;99.90;;;;;;5067405;28;19915;-77
2023/03/22 01:26:58;;;;;;;;;;;9.90;99.90;;;;;;5067303;28;20281;-77
2023/03/22 01:29:24;;;;;;;;;;;9.80;99.90;;;;;;5066258;28;19913;-77
2023/03/22 01:31:49;;;;;;;;;;;9.90;99.90;;;;;;5067193;28;19919;-77
2023/03/22 01:34:15;;;;;;;;;;;9.90;99.90;;;;;;5079555;28;19912;-76
2023/03/22 01:36:40;;;;;;;;;;;9.80;99.90;;;;;;5087720;28;19924;-76
2023/03/22 01:39:07;;;;;;;;;;;9.80;99.90;;;;;;5087707;28;19920;-77
2023/03/22 01:41:33;;;;;;;;;;;9.80;99.90;;;;;;5050570;28;19908;-77
2023/03/22 01:44:12;;;;;;;;;;;9.90;99.90;;;;;;5078078;28;19919;-77
2023/03/22 01:46:38;;;;;;;;;;;9.80;99.90;;;;;;5087663;28;19912;-77
2023/03/22 01:49:05;;;;;;;;;;;9.80;99.90;;;;;;5087879;28;19912;-77
2023/03/22 01:51:32;;;;;;;;;;;9.80;99.90;;;;;;5068986;28;19913;-77
2023/03/22 01:53:59;;;;;;;;;;;9.80;99.90;;;;;;5069294;28;19909;-76
2023/03/22 01:56:26;;;;;;;;;;;9.80;99.90;;;;;;5071241;28;19928;-77
2023/03/22 01:58:53;;;;;;;;;;;9.80;99.90;;;;;;5064049;28;19921;-77
2023/03/22 02:01:19;;;;;;;;;;;9.80;99.90;;;;;;5070646;28;19912;-77
2023/03/22 02:03:58;;;;;;;;;;;9.80;99.90;;;;;;5070798;28;19912;-77
2023/03/22 02:06:25;;;;;;;;;;;9.80;99.90;;;;;;5070917;28;19912;-76
2023/03/22 02:08:51;;;;;;;;;;;9.80;99.90;;;;;;5070795;28;19966;-77
2023/03/22 02:11:24;;;;;;;;;;;9.80;99.90;;;;;;5070643;28;19912;-77
2023/03/22 02:14:08;;;;;;;;;;;9.70;99.90;;;;;;5061721;28;20002;-77
2023/03/22 02:16:43;;;;;;;;;;;9.70;99.90;;;;;;5090867;28;19919;-77
2023/03/22 02:19:09;;;;;;;;;;;9.70;99.90;;;;;;5090865;28;19999;-77
2023/03/22 02:21:40;;;;;;;;;;;9.70;99.90;;;;;;5072159;28;20664;-77
2023/03/22 02:24:31;;;;;;;;;;;9.70;99.90;;;;;;5070803;28;19908;-77
2023/03/22 02:27:20;;;;;;;;;;;9.70;99.90;;;;;;5070637;28;19948;-77
2023/03/22 02:29:47;;;;;;;;;;;9.70;99.90;;;;;;5061967;28;20323;-77
2023/03/22 02:32:12;;;;;;;;;;;9.70;99.90;;;;;;5069981;28;19916;-77
2023/03/22 02:34:53;;;;;;;;;;;9.70;99.90;;;;;;5085797;28;19913;-77
2023/03/22 02:37:32;;;;;;;;;;;9.60;99.90;;;;;;5090536;28;19912;-77
2023/03/22 02:40:16;;;;;;;;;;;9.60;99.90;;;;;;5086784;28;20027;-77
2023/03/22 02:42:55;;;;;;;;;;;9.60;99.90;;;;;;5090000;28;19912;-77
2023/03/22 02:45:29;;;;;;;;;;;9.60;99.90;;;;;;5050313;28;19913;-77
2023/03/22 02:48:02;;;;;;;;;;;9.60;99.90;;;;;;5061801;28;20551;-77
2023/03/22 02:50:48;;;;;;;;;;;9.60;99.90;;;;;;5069811;28;19943;-77
2023/03/22 02:53:33;;;;;;;;;;;9.60;99.90;;;;;;5058640;28;19913;-77
2023/03/22 02:56:01;;;;;;;;;;;9.60;99.90;;;;;;5070083;28;19917;-76
2023/03/22 02:58:44;;;;;;;;;;;9.60;99.90;;;;;;5064463;28;19919;-76
2023/03/22 03:01:13;;;;;;;;;;;9.60;99.90;;;;;;5069621;28;20123;-77
2023/03/22 03:03:39;;;;;;;;;;;9.50;99.90;;;;;;5069764;28;19913;-76
2023/03/22 03:06:08;;;;;;;;;;;9.50;99.90;;;;;;5069684;28;19919;-77
2023/03/22 03:08:35;;;;;;;;;;;9.50;99.90;;;;;;5069542;28;19909;-77
2023/03/22 03:11:00;;;;;;;;;;;9.50;99.90;;;;;;5051401;28;19962;-76
2023/03/22 03:13:26;;;;;;;;;;;9.50;99.90;;;;;;5075377;28;19912;-77
2023/03/22 03:15:53;;;;;;;;;;;9.50;99.90;;;;;;5089812;28;19919;-77
2023/03/22 03:18:31;;;;;;;;;;;9.50;99.90;;;;;;5089827;28;19994;-76
2023/03/22 03:21:16;;;;;;;;;;;9.50;99.90;;;;;;5076274;28;19973;-76
2023/03/22 03:23:48;;;;;;;;;;;9.40;99.90;;;;;;5069320;28;19920;-76
2023/03/22 03:26:27;;;;;;;;;;;9.40;99.90;;;;;;5069458;28;19939;-76
2023/03/22 03:28:55;;;;;;;;;;;9.40;99.90;;;;;;5069341;28;19915;-76
2023/03/22 03:31:30;;;;;;;;;;;9.40;99.90;;;;;;5069141;28;19919;-76
2023/03/22 03:34:05;;;;;;;;;;;9.40;99.90;;;;;;5065429;28;19985;-76
2023/03/22 03:36:33;;;;;;;;;;;9.30;99.90;;;;;;5056872;28;19917;-77
2023/03/22 03:38:59;;;;;;;;;;;9.40;99.90;;;;;;5068406;28;19916;-77
2023/03/22 03:41:26;;;;;;;;;;;9.30;99.90;;;;;;5068536;28;19912;-77
2023/03/22 03:43:52;;;;;;;;;;;9.30;99.90;;;;;;5077799;28;19912;-77
2023/03/22 03:46:19;;;;;;;;;;;9.30;99.90;;;;;;5088558;28;19958;-76
2023/03/22 03:48:47;;;;;;;;;;;9.30;99.90;;;;;;5088976;28;19960;-76
2023/03/22 03:51:12;;;;;;;;;;;9.30;99.90;;;;;;5054851;28;19913;-76
2023/03/22 03:53:38;;;;;;;;;;;9.30;99.90;;;;;;5061974;28;20019;-76
2023/03/22 03:56:04;;;;;;;;;;;9.30;99.90;;;;;;5065539;28;20006;-76
2023/03/22 03:58:29;;;;;;;;;;;9.20;99.90;;;;;;5070562;28;19957;-77
2023/03/22 04:00:55;;;;;;;;;;;9.20;99.90;;;;;;5088414;28;19920;-76
2023/03/22 04:03:21;;;;;;;;;;;9.20;99.90;;;;;;5079763;28;20377;-76
2023/03/22 04:05:46;;;;;;;;;;;9.20;99.90;;;;;;5068528;28;19912;-76
2023/03/22 04:08:11;;;;;;;;;;;9.20;99.90;;;;;;5068453;28;19912;-76
2023/03/22 04:10:37;;;;;;;;;;;9.20;99.90;;;;;;5068308;28;19915;-76
2023/03/22 04:13:02;;;;;;;;;;;9.10;99.90;;;;;;5070984;28;19930;-76
2023/03/22 04:15:28;;;;;;;;;;;9.10;99.90;;;;;;5088117;28;19912;-76
2023/03/22 04:17:54;;;;;;;;;;;9.20;99.90;;;;;;5088324;28;20074;-76
2023/03/22 04:20:19;;;;;;;;;;;9.10;99.90;;;;;;5080045;28;20626;-76
2023/03/22 04:22:47;;;;;;;;;;;9.10;99.90;;;;;;5049680;28;19912;-76
2023/03/22 04:25:16;;;;;;;;;;;9.10;99.90;;;;;;5067856;28;19912;-77
2023/03/22 04:27:42;;;;;;;;;;;9.10;99.90;;;;;;5067613;28;19932;-76
2023/03/22 04:30:10;;;;;;;;;;;9.10;99.90;;;;;;5061069;28;19927;-76
2023/03/22 04:32:36;;;;;;;;;;;9.10;99.90;;;;;;5067395;28;19920;-76
2023/03/22 04:35:02;;;;;;;;;;;9.10;99.90;;;;;;5067566;28;19972;-76
2023/03/22 04:37:30;;;;;;;;;;;9.10;99.90;;;;;;5067842;28;19908;-76
2023/03/22 04:39:56;;;;;;;;;;;9.00;99.90;;;;;;5067742;28;20011;-76
2023/03/22 04:42:22;;;;;;;;;;;9.00;99.90;;;;;;5087364;28;19912;-76
2023/03/22 04:44:47;;;;;;;;;;;9.00;99.90;;;;;;5087898;28;20487;-76
2023/03/22 04:47:12;;;;;;;;;;;9.00;99.90;;;;;;5087559;28;19919;-77
2023/03/22 04:49:38;;;;;;;;;;;9.00;99.90;;;;;;5085516;28;19912;-76
2023/03/22 04:52:04;;;;;;;;;;;9.00;99.90;;;;;;5066903;28;20617;-76
2023/03/22 04:54:29;;;;;;;;;;;9.00;99.90;;;;;;5067905;28;19908;-76
2023/03/22 04:56:55;;;;;;;;;;;9.00;99.90;;;;;;5067756;28;19912;-76
2023/03/22 04:59:20;;;;;;;;;;;9.00;99.90;;;;;;5067768;28;19916;-76
2023/03/22 05:01:46;;;;;;;;;;;9.00;99.90;;;;;;5066996;28;20408;-76
2023/03/22 05:04:12;;;;;;;;;;;9.00;99.90;;;;;;5078922;28;19919;-76
2023/03/22 05:06:37;;;;;;;;;;;9.00;99.90;;;;;;5087415;28;19912;-76
2023/03/22 05:09:03;;;;;;;;;;;9.00;99.90;;;;;;5069371;28;19912;-76
2023/03/22 05:11:28;;;;;;;;;;;9.00;99.90;;;;;;5087332;28;20284;-76
2023/03/22 05:13:54;;;;;;;;;;;9.00;99.90;;;;;;5087564;28;19908;-77
2023/03/22 05:16:20;;;;;;;;;;;9.00;99.90;;;;;;5087588;28;20400;-77
2023/03/22 05:18:45;;;;;;;;;;;9.00;99.90;;;;;;5087326;28;20338;-76
2023/03/22 05:21:14;;;;;;;;;;;9.00;99.90;;;;;;5071781;28;19928;-76
2023/03/22 05:23:40;;;;;;;;;;;9.00;99.90;;;;;;5067442;28;19916;-76
2023/03/22 05:26:07;;;;;;;;;;;9.00;99.90;;;;;;5067275;28;19915;-76
2023/03/22 05:28:33;;;;;;;;;;;9.00;99.90;;;;;;5050966;28;19912;-77
2023/03/22 05:30:58;;;;;;;;;;;9.00;99.90;;;;;;5064432;28;19912;-76
2023/03/22 05:33:24;;;;;;;;;;;9.00;99.90;;;;;;5068221;28;19912;-76
2023/03/22 05:35:50;;;;;;;;;;;9.00;99.90;;;;;;5071513;28;19912;-77
2023/03/22 05:38:16;;;;;;;;;;;9.00;99.90;;;;;;5071493;28;19912;-76
2023/03/22 05:40:42;;;;;;;;;;;9.00;99.90;;;;;;5071400;28;19939;-77
2023/03/22 05:43:07;;;;;;;;;;;9.00;99.90;;;;;;5074546;28;20288;-77
2023/03/22 05:45:34;;;;;;;;;;;9.00;99.90;;;;;;5073301;28;19923;-76
2023/03/22 05:48:00;;;;;;;;;;;9.00;99.90;;;;;;5073338;28;19912;-77
2023/03/22 05:50:25;;;;;;;;;;;9.00;99.90;;;;;;5082218;28;19908;-77
2023/03/22 05:52:51;;;;;;;;;;;9.00;99.90;;;;;;5070833;28;19942;-76
2023/03/22 05:55:18;;;;;;;;;;;9.00;99.90;;;;;;5071078;28;19966;-77
2023/03/22 05:57:45;;;;;;;;;;;9.00;99.90;;;;;;5070882;28;19920;-76
2023/03/22 06:00:13;;;;;;;;;;;9.00;99.90;;;;;;5052646;28;20727;-77
2023/03/22 06:02:40;;;;;;;;;;;9.00;99.90;;;;;;5052950;28;19919;-76
2023/03/22 06:05:06;;;;;;;;;;;9.00;99.90;;;;;;5087701;28;19923;-77
2023/03/22 06:07:31;;;;;;;;;;;9.10;99.90;;;;;;5077309;28;19912;-77
2023/03/22 06:09:57;;;;;;;;;;;9.10;99.90;;;;;;5081426;28;19908;-77
2023/03/22 06:12:24;;;;;;;;;;;9.10;99.90;;;;;;5061570;28;19912;-77
2023/03/22 06:14:50;;;;;;;;;;;9.10;99.90;;;;;;5063042;28;19924;-76
2023/03/22 06:17:16;;;;;;;;;;;9.10;99.90;;;;;;5069018;28;19921;-76
2023/03/22 06:19:41;;;;;;;;;;;9.10;99.90;;;;;;5069725;28;19931;-77
2023/03/22 06:22:07;;;;;;;;;;;9.10;99.90;;;;;;5070261;28;20296;-76
2023/03/22 06:24:33;;;;;;;;;;;9.10;99.90;;;;;;5064306;28;19916;-77
2023/03/22 06:26:58;;;;;;;;;;;9.10;99.90;;;;;;5090839;28;20005;-77
2023/03/22 06:29:24;;;;;;;;;;;9.10;99.90;;;;;;5089848;28;19912;-77
2023/03/22 06:31:49;;;;;;;;;;;9.20;99.90;;;;;;5069652;28;20528;-77
2023/03/22 06:34:15;;;;;;;;;;;9.20;99.90;;;;;;5075867;28;19966;-76
2023/03/22 06:36:41;;;;;;;;;;;9.20;99.90;;;;;;5083883;28;19960;-76
2023/03/22 06:39:06;;;;;;;;;;;9.30;99.90;;;;;;5069113;28;19916;-76
2023/03/22 06:41:32;;;;;;;;;;;9.30;99.90;;;;;;5070975;28;19931;-77
2023/03/22 06:43:57;;;;;;;;;;;9.30;99.90;;;;;;5061720;28;20285;-76
2023/03/22 06:46:23;;;;;;;;;;;9.30;99.90;;;;;;5080583;28;19930;-77
2023/03/22 06:48:48;;;;;;;;;;;9.30;99.90;;;;;;5079614;28;19966;-76
2023/03/22 06:51:14;;;;;;;;;;;9.40;99.90;;;;;;5078771;28;19913;-77
2023/03/22 06:53:40;;;;;;;;;;;9.40;99.90;;;;;;5069293;28;20389;-77
2023/03/22 06:56:05;;;;;;;;;;;9.40;99.90;;;;;;5077506;28;19922;-77
2023/03/22 06:58:31;;;;;;;;;;;9.50;99.90;;;;;;5079436;28;19947;-77
2023/03/22 07:00:56;;;;;;;;;;;9.50;99.90;;;;;;5071044;28;19943;-77
2023/03/22 07:03:22;;;;;;;;;;;9.50;99.90;;;;;;5078880;28;19913;-76
2023/03/22 07:05:48;;;;;;;;;;;9.50;99.90;;;;;;5074759;28;19916;-76
2023/03/22 07:08:14;;;;;;;;;;;9.50;99.90;;;;;;5075844;28;19917;-77
2023/03/22 07:10:41;;;;;;;;;;;9.60;99.90;;;;;;5074786;28;19924;-77
2023/03/22 07:13:06;;;;;;;;;;;9.60;99.90;;;;;;5075523;28;19912;-77
2023/03/22 07:15:33;;;;;;;;;;;9.60;99.90;;;;;;5076649;28;19958;-77
2023/03/22 07:17:59;;;;;;;;;;;9.60;99.90;;;;;;5086896;28;19912;-77
2023/03/22 07:20:25;;;;;;;;;;;9.60;99.90;;;;;;5080615;28;20592;-77
2023/03/22 07:22:50;;;;;;;;;;;9.60;99.90;;;;;;5069108;28;19966;-77
2023/03/22 07:25:16;;;;;;;;;;;9.60;99.90;;;;;;5078353;28;19916;-77
2023/03/22 07:27:42;;;;;;;;;;;9.70;99.90;;;;;;5088926;28;20351;-77
2023/03/22 07:30:07;;;;;;;;;;;9.70;99.90;;;;;;5082191;28;20011;-77
2023/03/22 07:32:33;;;;;;;;;;;9.70;99.90;;;;;;5068670;28;19995;-77
2023/03/22 07:34:58;;;;;;;;;;;9.70;99.90;;;;;;5053031;28;19936;-77
2023/03/22 07:37:24;;;;;;;;;;;9.70;99.90;;;;;;5069336;28;19966;-77
2023/03/22 07:39:50;;;;;;;;;;;9.80;99.90;;;;;;5069252;28;19923;-77
2023/03/22 07:42:15;;;;;;;;;;;9.80;99.90;;;;;;5051081;28;19916;-77
2023/03/22 07:44:41;;;;;;;;;;;9.90;99.90;;;;;;5085196;28;19973;-77
2023/03/22 07:47:06;;;;;;;;;;;9.90;99.90;;;;;;5088491;28;20356;-76
2023/03/22 07:49:32;;;;;;;;;;;10.00;99.90;;;;;;5087486;28;19912;-78
2023/03/22 07:51:57;;;;;;;;;;;10.00;99.90;;;;;;5067762;28;19916;-77
2023/03/22 07:54:23;;;;;;;;;;;10.10;99.90;;;;;;5052905;28;20524;-77
2023/03/22 07:56:48;;;;;;;;;;;10.20;99.90;;;;;;5077460;28;19916;-77
2023/03/22 07:59:15;;;;;;;;;;;10.20;99.90;;;;;;5061090;28;19912;-78
2023/03/22 08:01:41;;;;;;;;;;;10.30;99.90;;;;;;5078349;28;19923;-77
2023/03/22 08:04:06;;;;;;;;;;;10.30;99.90;;;;;;5077299;28;19913;-77
2023/03/22 08:06:32;;;;;;;;;;;10.40;99.90;;;;;;5074415;28;19912;-77
2023/03/22 08:08:58;;;;;;;;;;;10.50;99.90;;;;;;5078233;28;20049;-77
2023/03/22 08:11:23;;;;;;;;;;;10.50;99.90;;;;;;5077564;28;19935;-77
2023/03/22 08:13:49;;;;;;;;;;;10.50;99.90;;;;;;5079762;28;19965;-77
2023/03/22 08:16:14;;;;;;;;;;;10.50;99.90;;;;;;5076184;28;20020;-77
2023/03/22 08:18:40;;;;;;;;;;;10.60;99.90;;;;;;5059905;28;20359;-77
2023/03/22 08:21:06;;;;;;;;;;;10.60;99.90;;;;;;5077272;28;19921;-77
2023/03/22 08:23:31;;;;;;;;;;;10.50;99.90;;;;;;5073661;28;20481;-77
2023/03/22 08:25:57;;;;;;;;;;;10.60;99.90;;;;;;5076806;28;20460;-77
2023/03/22 08:28:22;;;;;;;;;;;10.60;99.90;;;;;;5061005;28;20336;-78
2023/03/22 08:30:48;;;;;;;;;;;10.60;99.90;;;;;;5074787;28;19993;-77
2023/03/22 08:33:14;;;;;;;;;;;10.60;99.90;;;;;;5067585;28;20400;-77
2023/03/22 08:35:40;;;;;;;;;;;10.70;99.90;;;;;;5049814;28;20172;-77
2023/03/22 08:38:06;;;;;;;;;;;10.80;99.90;;;;;;5068082;28;19909;-78
2023/03/22 08:40:31;;;;;;;;;;;10.80;99.70;;;;;;5067451;28;19916;-77
2023/03/22 08:42:57;;;;;;;;;;;10.80;99.70;;;;;;5074928;28;19912;-76
2023/03/22 08:45:23;;;;;;;;;;;10.90;99.60;;;;;;5076029;28;19934;-77
2023/03/22 08:47:48;;;;;;;;;;;10.90;99.60;;;;;;5067429;28;19919;-77
2023/03/22 08:50:14;;;;;;;;;;;11.00;99.50;;;;;;5067106;28;19923;-77
2023/03/22 08:52:39;;;;;;;;;;;11.00;99.50;;;;;;5067243;28;20146;-76
2023/03/22 08:55:07;;;;;;;;;;;11.00;99.40;;;;;;5067514;28;20427;-77
2023/03/22 08:57:32;;;;;;;;;;;11.00;99.20;;;;;;5067362;28;19909;-78
2023/03/22 08:59:59;;;;;;;;;;;11.10;99.30;;;;;;5067559;28;19927;-78
2023/03/22 09:02:24;;;;;;;;;;;11.10;99.30;;;;;;5066815;28;19920;-78
2023/03/22 09:04:50;;;;;;;;;;;11.10;99.20;;;;;;5068613;28;20340;-77
2023/03/22 09:07:16;;;;;;;;;;;11.10;99.20;;;;;;5063164;28;19912;-79
2023/03/22 09:09:42;;;;;;;;;;;11.20;99.20;;;;;;5067017;28;19912;-78
2023/03/22 09:12:07;;;;;;;;;;;11.20;99.20;;;;;;5065816;28;19958;-77
2023/03/22 09:14:33;;;;;;;;;;;11.20;99.30;;;;;;5069381;28;19919;-77
2023/03/22 09:16:59;;;;;;;;;;;11.20;99.20;;;;;;5056966;28;19977;-77
2023/03/22 09:19:25;;;;;;;;;;;11.20;99.20;;;;;;5068583;28;19955;-77
2023/03/22 09:21:50;;;;;;;;;;;11.20;99.10;;;;;;5077941;28;20050;-77
2023/03/22 09:24:16;;;;;;;;;;;11.20;99.20;;;;;;5059995;28;19994;-77
2023/03/22 09:26:42;;;;;;;;;;;11.20;99.30;;;;;;5076912;28;19920;-78
2023/03/22 09:29:07;;;;;;;;;;;11.20;99.20;;;;;;5076764;28;19909;-77
2023/03/22 09:31:33;;;;;;;;;;;11.30;99.20;;;;;;5071264;28;19912;-77
2023/03/22 09:33:58;;;;;;;;;;;11.30;99.20;;;;;;5055085;28;20004;-78
2023/03/22 09:36:24;;;;;;;;;;;11.30;98.90;;;;;;5061109;28;19920;-77
2023/03/22 09:38:49;;;;;;;;;;;11.40;98.80;;;;;;5063188;28;19917;-78
2023/03/22 09:41:18;;;;;;;;;;;11.40;98.80;;;;;;5066648;28;19962;-78
2023/03/22 09:43:55;;;;;;;;;;;11.50;98.80;;;;;;5064846;28;19913;-77
2023/03/22 09:46:47;;;;;;;;;;;11.50;98.80;;;;;;5047042;28;20330;-77
2023/03/22 09:49:15;;;;;;;;;;;11.50;98.80;;;;;;5064925;28;20671;-77
2023/03/22 09:51:46;;;;;;;;;;;11.60;98.60;;;;;;5058482;28;19927;-77
2023/03/22 09:54:20;;;;;;;;;;;11.60;98.50;;;;;;5075512;28;19916;-77
2023/03/22 09:56:58;;;;;;;;;;;11.70;98.50;;;;;;5068804;28;19913;-77
2023/03/22 09:59:27;;;;;;;;;;;11.70;98.40;;;;;;5066386;28;20462;-78
2023/03/22 10:01:52;;;;;;;;;;;11.80;98.40;;;;;;5065818;28;20048;-77
2023/03/22 10:04:28;;;;;;;;;;;11.80;98.40;;;;;;5078969;28;19912;-77
2023/03/22 10:07:06;;;;;;;;;;;11.80;98.50;;;;;;5086434;28;19919;-78
2023/03/22 10:09:41;;;;;;;;;;;11.80;98.20;;;;;;5087350;28;19912;-78
2023/03/22 10:12:10;;;;;;;;;;;11.80;98.30;;;;;;5069815;28;19959;-78
2023/03/22 10:14:40;;;;;;;;;;;11.90;98.10;;;;;;5068698;28;19963;-78
2023/03/22 10:17:10;;;;;;;;;;;11.90;98.10;;;;;;5071733;28;19912;-77
2023/03/22 10:19:49;;;;;;;;;;;12.00;98.10;;;;;;5072520;28;20387;-78
2023/03/22 10:22:15;;;;;;;;;;;12.00;97.70;;;;;;5075366;28;19912;-77
2023/03/22 10:24:42;;;;;;;;;;;12.10;98.00;;;;;;5084388;28;19908;-77
2023/03/22 10:27:14;;;;;;;;;;;12.10;98.00;;;;;;5090101;28;19912;-77
2023/03/22 10:29:42;;;;;;;;;;;12.10;97.70;;;;;;5087586;28;19917;-78
2023/03/22 10:32:12;;;;;;;;;;;12.20;97.90;;;;;;5069295;28;19913;-77
2023/03/22 10:34:38;;;;;;;;;;;12.20;98.00;;;;;;5070416;28;20548;-77
2023/03/22 10:37:04;;;;;;;;;;;12.20;97.70;;;;;;5052358;28;19912;-77
2023/03/22 10:39:31;;;;;;;;;;;12.20;97.90;;;;;;5070151;28;19924;-77
2023/03/22 10:41:59;;;;;;;;;;;12.30;97.50;;;;;;5069824;28;19912;-77
2023/03/22 10:44:26;;;;;;;;;;;12.40;97.90;;;;;;5069807;28;19913;-77
2023/03/22 10:46:53;;;;;;;;;;;12.40;97.70;;;;;;5070110;28;19973;-77
2023/03/22 10:49:24;;;;;;;;;;;12.50;97.40;;;;;;5070305;28;20592;-78
2023/03/22 10:51:52;;;;;;;;;;;12.60;97.60;;;;;;5056617;28;19912;-78
2023/03/22 10:54:20;;;;;;;;;;;12.60;97.20;;;;;;5070287;28;20021;-78
2023/03/22 10:56:45;;;;;;;;;;;12.70;97.30;;;;;;5085822;28;20364;-78
2023/03/22 10:59:40;;;;;;;;;;;12.70;97.30;;;;;;5067330;28;19923;-78
2023/03/22 11:02:15;;;;;;;;;;;12.70;96.80;;;;;;5089744;28;19942;-78
2023/03/22 11:04:45;;;;;;;;;;;12.70;97.20;;;;;;5079710;28;19917;-78
2023/03/22 11:07:13;;;;;;;;;;;12.70;97.40;;;;;;5073296;28;19927;-78
2023/03/22 11:09:39;;;;;;;;;;;12.80;97.50;;;;;;5078068;28;19919;-78
2023/03/22 11:12:10;;;;;;;;;;;12.80;97.40;;;;;;5086259;28;19916;-78
2023/03/22 11:14:40;;;;;;;;;;;12.80;97.00;;;;;;5074140;28;19914;-78
2023/03/22 11:17:06;;;;;;;;;;;12.90;97.20;;;;;;5069903;28;19912;-78
2023/03/22 11:19:33;;;;;;;;;;;12.90;97.30;;;;;;5069658;28;19916;-78
2023/03/22 11:21:59;;;;;;;;;;;12.90;96.90;;;;;;5069294;28;19916;-78
2023/03/22 11:24:26;;;;;;;;;;;13.00;97.20;;;;;;5069666;28;20642;-78
2023/03/22 11:27:31;;;;;;;;;;;13.00;97.20;;;;;;5068310;28;19916;-78
2023/03/22 11:30:15;;;;;;;;;;;13.00;97.10;;;;;;5006900;28;19976;-78
2023/03/22 11:32:41;;;;;;;;;;;13.10;97.00;;;;;;4986034;28;20025;-78
2023/03/22 11:35:09;;;;;;;;;;;13.00;96.70;;;;;;5031120;28;20015;-78
2023/03/22 11:37:39;;;;;;;;;;;13.10;96.90;;;;;;5052953;28;19916;-78
2023/03/22 11:40:09;;;;;;;;;;;13.10;97.20;;;;;;5065576;28;19923;-77
2023/03/22 11:42:35;;;;;;;;;;;13.00;97.00;;;;;;5054064;28;20038;-77
2023/03/22 11:45:00;;;;;;;;;;;13.00;97.00;;;;;;5062037;28;20003;-78
2023/03/22 11:47:29;;;;;;;;;;;13.00;97.10;;;;;;5068941;28;19966;-78
2023/03/22 11:49:56;;;;;;;;;;;13.00;97.10;;;;;;5069401;28;19913;-77
2023/03/22 11:52:23;;;;;;;;;;;13.00;97.10;;;;;;5069050;28;19920;-78
2023/03/22 11:54:49;;;;;;;;;;;13.00;97.40;;;;;;5069042;28;19913;-78
2023/03/22 11:57:24;;;;;;;;;;;13.00;96.90;;;;;;5069119;28;19912;-77
2023/03/22 11:59:52;;;;;;;;;;;13.00;97.20;;;;;;5068849;28;19916;-77
2023/03/22 12:02:22;;;;;;;;;;;13.00;97.50;;;;;;5068611;28;19912;-77
2023/03/22 12:04:50;;;;;;;;;;;12.90;97.30;;;;;;5068459;28;19908;-78
2023/03/22 12:07:18;;;;;;;;;;;12.90;97.20;;;;;;5068887;28;19923;-78
2023/03/22 12:09:53;;;;;;;;;;;12.90;97.00;;;;;;5068489;28;19924;-78
2023/03/22 12:12:24;;;;;;;;;;;12.90;97.30;;;;;;5050411;28;20011;-78
2023/03/22 12:14:53;;;;;;;;;;;12.90;97.10;;;;;;5068377;28;20579;-77
2023/03/22 12:17:24;;;;;;;;;;;12.90;97.30;;;;;;5068183;28;19912;-78
2023/03/22 12:20:05;;;;;;;;;;;12.90;97.00;;;;;;5068066;28;19978;-77
2023/03/22 12:22:33;;;;;;;;;;;12.90;97.70;;;;;;5068142;28;19917;-77
2023/03/22 12:25:00;;;;;;;;;;;12.90;97.60;;;;;;5068416;28;19912;-78
2023/03/22 12:27:28;;;;;;;;;;;12.80;97.40;;;;;;5070917;28;20366;-78
2023/03/22 12:29:57;;;;;;;;;;;12.80;97.20;;;;;;5067965;28;19913;-77
2023/03/22 12:32:28;;;;;;;;;;;12.80;97.60;;;;;;5065300;28;19909;-78
2023/03/22 12:34:55;;;;;;;;;;;12.80;97.80;;;;;;5068112;28;19912;-77
2023/03/22 12:37:26;;;;;;;;;;;12.80;97.80;;;;;;5067973;28;19923;-78
2023/03/22 12:39:51;;;;;;;;;;;12.80;97.20;;;;;;5058319;28;19930;-77
2023/03/22 12:42:26;;;;;;;;;;;12.80;97.40;;;;;;5060065;28;19908;-78
2023/03/22 12:44:57;;;;;;;;;;;12.90;97.90;;;;;;5076611;28;19912;-78
2023/03/22 12:47:33;;;;;;;;;;;12.90;97.50;;;;;;5073980;28;20361;-77
2023/03/22 12:50:01;;;;;;;;;;;12.90;97.50;;;;;;5077924;28;19916;-79
2023/03/22 12:52:30;;;;;;;;;;;12.90;97.00;;;;;;5076444;28;20370;-78
2023/03/22 12:54:58;;;;;;;;;;;12.90;97.40;;;;;;5075985;28;20377;-77
2023/03/22 12:57:24;;;;;;;;;;;12.90;97.50;;;;;;5077349;28;20036;-78
2023/03/22 12:59:51;;;;;;;;;;;12.90;97.40;;;;;;5075053;28;19920;-78
2023/03/22 13:02:16;;;;;;;;;;;12.90;97.20;;;;;;5077392;28;19912;-78
2023/03/22 13:04:42;;;;;;;;;;;12.80;97.40;;;;;;5078397;28;19966;-77
2023/03/22 13:07:11;;;;;;;;;;;12.80;97.20;;;;;;5084942;28;19912;-77
2023/03/22 13:09:41;;;;;;;;;;;12.80;97.70;;;;;;5083479;28;19912;-78
2023/03/22 13:12:15;;;;;;;;;;;12.80;97.70;;;;;;5083620;28;20049;-77
2023/03/22 13:14:54;;;;;;;;;;;12.80;97.70;;;;;;5070955;28;20600;-77
2023/03/22 13:17:23;;;;;;;;;;;12.70;97.80;;;;;;5066926;28;19916;-77
2023/03/22 13:20:05;;;;;;;;;;;12.70;98.10;;;;;;5076211;28;19920;-78
2023/03/22 13:22:36;;;;;;;;;;;12.70;97.80;;;;;;5074717;28;19946;-77
2023/03/22 13:25:11;;;;;;;;;;;12.70;97.80;;;;;;5075492;28;19912;-77
2023/03/22 13:27:56;;;;;;;;;;;12.70;98.20;;;;;;5075536;28;20320;-77
2023/03/22 13:30:22;;;;;;;;;;;12.60;98.10;;;;;;5071770;28;19912;-77
2023/03/22 13:33:08;;;;;;;;;;;12.60;98.00;;;;;;5072821;28;19915;-77
2023/03/22 13:35:33;;;;;;;;;;;12.60;98.20;;;;;;5084326;28;19912;-77
2023/03/22 13:38:01;;;;;;;;;;;12.60;98.10;;;;;;5048607;28;19920;-78
2023/03/22 13:40:34;;;;;;;;;;;12.60;98.10;;;;;;5066532;28;20050;-77
2023/03/22 13:43:11;;;;;;;;;;;12.60;97.90;;;;;;5066596;28;19920;-77
2023/03/22 13:45:55;;;;;;;;;;;12.60;98.00;;;;;;5066688;28;19924;-77
2023/03/22 13:48:29;;;;;;;;;;;12.60;98.50;;;;;;5066368;28;19925;-78
2023/03/22 13:50:55;;;;;;;;;;;12.60;97.90;;;;;;5070113;28;19912;-78
2023/03/22 13:53:32;;;;;;;;;;;12.60;97.70;;;;;;5070489;28;19940;-77
2023/03/22 13:56:02;;;;;;;;;;;12.60;97.90;;;;;;5071290;28;20628;-78
2023/03/22 13:58:34;;;;;;;;;;;12.60;97.70;;;;;;5070650;28;19920;-77
2023/03/22 14:01:01;;;;;;;;;;;12.60;98.00;;;;;;5053718;28;20419;-78
2023/03/22 14:03:29;;;;;;;;;;;12.70;98.00;;;;;;5080455;28;19919;-78
2023/03/22 14:06:14;;;;;;;;;;;12.70;97.90;;;;;;5070192;28;20006;-78
2023/03/22 14:08:42;;;;;;;;;;;12.70;97.80;;;;;;5070374;28;20394;-77
2023/03/22 14:11:16;;;;;;;;;;;12.80;97.70;;;;;;5075338;28;19916;-79
2023/03/22 14:13:45;;;;;;;;;;;12.80;97.50;;;;;;5058988;28;19924;-77
2023/03/22 14:16:14;;;;;;;;;;;12.80;97.60;;;;;;5057772;28;20373;-78
2023/03/22 14:18:42;;;;;;;;;;;12.80;97.40;;;;;;5080574;28;19919;-77
2023/03/22 14:21:12;;;;;;;;;;;12.80;97.60;;;;;;5079676;28;19931;-78
2023/03/22 14:23:41;;;;;;;;;;;12.80;97.60;;;;;;5081789;28;19912;-77
2023/03/22 14:26:15;;;;;;;;;;;12.80;97.50;;;;;;5078819;28;19912;-77
2023/03/22 14:28:41;;;;;;;;;;;12.80;97.40;;;;;;5056041;28;19912;-78
2023/03/22 14:31:13;;;;;;;;;;;12.80;97.40;;;;;;5076748;28;19919;-78